KCCR/CCR METAR and TAF weather

Enter ICAO airport designator
Station Type Date Time Source
KCCR METAR 2022/01/25 04:53 UTC NOAA

KCCR 250453Z 15004KT 8SM CLR 09/06 A3007 RMK AO2 SLP168 T00890061


Station Type Date Time Source
KCCR Decoded METAR 2022/01/25 04:53 UTC NOAA

CONCORD BUCHANAN FIELD, CA, United States (KCCR) 38-00N 122-03W 11M
Jan 24, 2022 - 11:53 PM EST / 2022.01.25 0453 UTC
Wind: from the SSE (150 degrees) at 5 MPH (4 KT):0
Visibility: 8 mile(s):0
Sky conditions: clear
Temperature: 48.0 F (8.9 C)
Dew Point: 43.0 F (6.1 C)
Relative Humidity: 82%
Pressure (altimeter): 30.07 in. Hg (1018 hPa)
ob: KCCR 250453Z 15004KT 8SM CLR 09/06 A3007 RMK AO2 SLP168 T00890061
cycle: 5

Station Type Date Time Source
KCCR TAF 2016/02/08 18:39 UTC NOAA

TAF KCCR 081738Z 0818/0918 07006KT P6SM SKC
FM082000 06010KT P6SM SKC
FM090000 06005KT P6SM SKC
FM090600 VRB03KT P6SM SKC

Example: see airport list